sensor_id;sensor_type;location;lat;lon;timestamp;P1;durP1;ratioP1;P2;durP2;ratioP2
59310;SDS011;45078;51.654;21.250;2023-10-09T00:02:05;5.93;;;2.30;;
59310;SDS011;45078;51.654;21.250;2023-10-09T00:04:32;7.70;;;1.92;;
59310;SDS011;45078;51.654;21.250;2023-10-09T00:07:01;4.35;;;2.28;;
59310;SDS011;45078;51.654;21.250;2023-10-09T00:09:28;4.28;;;2.22;;
59310;SDS011;45078;51.654;21.250;2023-10-09T00:11:57;3.15;;;2.03;;
59310;SDS011;45078;51.654;21.250;2023-10-09T00:14:28;4.88;;;2.25;;
59310;SDS011;45078;51.654;21.250;2023-10-09T00:16:55;7.60;;;3.30;;
59310;SDS011;45078;51.654;21.250;2023-10-09T00:19:41;5.18;;;2.83;;
59310;SDS011;45078;51.654;21.250;2023-10-09T00:22:08;5.93;;;3.08;;
59310;SDS011;45078;51.654;21.250;2023-10-09T00:24:54;8.33;;;2.43;;
59310;SDS011;45078;51.654;21.250;2023-10-09T00:27:40;7.00;;;2.30;;
59310;SDS011;45078;51.654;21.250;2023-10-09T00:30:08;6.90;;;2.53;;
59310;SDS011;45078;51.654;21.250;2023-10-09T00:32:36;5.32;;;2.05;;
59310;SDS011;45078;51.654;21.250;2023-10-09T00:35:10;6.18;;;2.00;;
59310;SDS011;45078;51.654;21.250;2023-10-09T00:37:58;6.47;;;2.38;;
59310;SDS011;45078;51.654;21.250;2023-10-09T00:40:44;8.18;;;2.47;;
59310;SDS011;45078;51.654;21.250;2023-10-09T00:43:13;3.63;;;1.80;;
59310;SDS011;45078;51.654;21.250;2023-10-09T00:45:39;7.88;;;2.65;;
59310;SDS011;45078;51.654;21.250;2023-10-09T00:48:07;5.22;;;2.53;;
59310;SDS011;45078;51.654;21.250;2023-10-09T00:50:34;5.07;;;2.22;;
59310;SDS011;45078;51.654;21.250;2023-10-09T00:53:00;6.85;;;2.03;;
59310;SDS011;45078;51.654;21.250;2023-10-09T00:55:30;5.28;;;2.58;;
59310;SDS011;45078;51.654;21.250;2023-10-09T00:58:11;5.53;;;2.10;;
59310;SDS011;45078;51.654;21.250;2023-10-09T01:00:41;4.72;;;2.10;;
59310;SDS011;45078;51.654;21.250;2023-10-09T01:03:11;3.40;;;1.98;;
59310;SDS011;45078;51.654;21.250;2023-10-09T01:05:41;4.90;;;2.30;;
59310;SDS011;45078;51.654;21.250;2023-10-09T01:08:16;4.38;;;1.88;;
59310;SDS011;45078;51.654;21.250;2023-10-09T01:10:59;5.53;;;2.80;;
59310;SDS011;45078;51.654;21.250;2023-10-09T01:13:35;5.72;;;2.70;;
59310;SDS011;45078;51.654;21.250;2023-10-09T01:16:25;5.88;;;2.13;;
59310;SDS011;45078;51.654;21.250;2023-10-09T01:18:54;5.47;;;2.03;;
59310;SDS011;45078;51.654;21.250;2023-10-09T01:21:23;5.00;;;2.23;;
59310;SDS011;45078;51.654;21.250;2023-10-09T01:23:50;4.30;;;2.05;;
59310;SDS011;45078;51.654;21.250;2023-10-09T01:29:04;5.93;;;2.28;;
59310;SDS011;45078;51.654;21.250;2023-10-09T01:31:40;6.82;;;2.13;;
59310;SDS011;45078;51.654;21.250;2023-10-09T01:34:11;4.35;;;2.20;;
59310;SDS011;45078;51.654;21.250;2023-10-09T01:36:37;8.88;;;1.83;;
59310;SDS011;45078;51.654;21.250;2023-10-09T01:39:04;4.50;;;1.83;;
59310;SDS011;45078;51.654;21.250;2023-10-09T01:41:46;8.00;;;2.50;;
59310;SDS011;45078;51.654;21.250;2023-10-09T01:44:13;5.63;;;2.50;;
59310;SDS011;45078;51.654;21.250;2023-10-09T01:46:41;6.20;;;2.00;;
59310;SDS011;45078;51.654;21.250;2023-10-09T01:49:09;6.32;;;2.50;;
59310;SDS011;45078;51.654;21.250;2023-10-09T01:51:46;4.60;;;2.08;;
59310;SDS011;45078;51.654;21.250;2023-10-09T01:54:15;5.90;;;2.70;;
59310;SDS011;45078;51.654;21.250;2023-10-09T01:56:58;4.68;;;2.42;;
59310;SDS011;45078;51.654;21.250;2023-10-09T01:59:30;4.05;;;2.03;;
59310;SDS011;45078;51.654;21.250;2023-10-09T02:02:03;7.68;;;2.05;;
59310;SDS011;45078;51.654;21.250;2023-10-09T02:04:50;4.05;;;2.00;;
59310;SDS011;45078;51.654;21.250;2023-10-09T02:07:17;5.72;;;2.15;;
59310;SDS011;45078;51.654;21.250;2023-10-09T02:09:51;7.07;;;2.10;;
59310;SDS011;45078;51.654;21.250;2023-10-09T02:12:19;3.35;;;1.77;;
59310;SDS011;45078;51.654;21.250;2023-10-09T02:14:46;4.03;;;2.03;;
59310;SDS011;45078;51.654;21.250;2023-10-09T02:17:12;4.65;;;2.08;;
59310;SDS011;45078;51.654;21.250;2023-10-09T02:19:45;4.83;;;2.50;;
59310;SDS011;45078;51.654;21.250;2023-10-09T02:22:14;2.70;;;1.67;;
59310;SDS011;45078;51.654;21.250;2023-10-09T02:24:44;5.15;;;2.10;;
59310;SDS011;45078;51.654;21.250;2023-10-09T02:27:13;2.97;;;1.50;;
59310;SDS011;45078;51.654;21.250;2023-10-09T02:29:45;4.22;;;2.00;;
59310;SDS011;45078;51.654;21.250;2023-10-09T02:32:12;3.38;;;1.60;;
59310;SDS011;45078;51.654;21.250;2023-10-09T02:34:51;5.00;;;2.45;;
59310;SDS011;45078;51.654;21.250;2023-10-09T02:37:19;4.72;;;1.98;;
59310;SDS011;45078;51.654;21.250;2023-10-09T02:39:49;3.35;;;1.63;;
59310;SDS011;45078;51.654;21.250;2023-10-09T02:42:17;3.33;;;1.75;;
59310;SDS011;45078;51.654;21.250;2023-10-09T02:44:51;4.47;;;2.30;;
59310;SDS011;45078;51.654;21.250;2023-10-09T02:47:20;5.57;;;2.45;;
59310;SDS011;45078;51.654;21.250;2023-10-09T02:49:50;4.70;;;2.20;;
59310;SDS011;45078;51.654;21.250;2023-10-09T02:52:16;4.55;;;1.83;;
59310;SDS011;45078;51.654;21.250;2023-10-09T02:54:53;5.75;;;2.13;;
59310;SDS011;45078;51.654;21.250;2023-10-09T02:57:25;5.15;;;2.10;;
59310;SDS011;45078;51.654;21.250;2023-10-09T03:00:01;4.18;;;2.05;;
59310;SDS011;45078;51.654;21.250;2023-10-09T03:02:44;3.78;;;2.00;;
59310;SDS011;45078;51.654;21.250;2023-10-09T03:05:13;5.70;;;1.88;;
59310;SDS011;45078;51.654;21.250;2023-10-09T03:07:40;3.53;;;1.75;;
59310;SDS011;45078;51.654;21.250;2023-10-09T03:10:06;7.38;;;2.20;;
59310;SDS011;45078;51.654;21.250;2023-10-09T03:12:34;3.75;;;1.73;;
59310;SDS011;45078;51.654;21.250;2023-10-09T03:15:00;4.70;;;1.92;;
59310;SDS011;45078;51.654;21.250;2023-10-09T03:17:27;3.50;;;1.70;;
59310;SDS011;45078;51.654;21.250;2023-10-09T03:19:53;3.13;;;1.75;;
59310;SDS011;45078;51.654;21.250;2023-10-09T03:22:19;4.10;;;2.28;;
59310;SDS011;45078;51.654;21.250;2023-10-09T03:24:45;5.97;;;2.28;;
59310;SDS011;45078;51.654;21.250;2023-10-09T03:27:11;4.40;;;2.13;;
59310;SDS011;45078;51.654;21.250;2023-10-09T03:29:38;5.90;;;2.72;;
59310;SDS011;45078;51.654;21.250;2023-10-09T03:32:04;4.78;;;2.22;;
59310;SDS011;45078;51.654;21.250;2023-10-09T03:34:31;10.63;;;1.90;;
59310;SDS011;45078;51.654;21.250;2023-10-09T03:36:57;6.63;;;2.45;;
59310;SDS011;45078;51.654;21.250;2023-10-09T03:39:31;6.20;;;2.05;;
59310;SDS011;45078;51.654;21.250;2023-10-09T03:42:05;5.10;;;2.47;;
59310;SDS011;45078;51.654;21.250;2023-10-09T03:44:36;5.20;;;2.53;;
59310;SDS011;45078;51.654;21.250;2023-10-09T03:47:13;4.97;;;2.20;;
59310;SDS011;45078;51.654;21.250;2023-10-09T03:49:42;6.13;;;2.58;;
59310;SDS011;45078;51.654;21.250;2023-10-09T03:52:08;5.22;;;2.30;;
59310;SDS011;45078;51.654;21.250;2023-10-09T03:54:34;5.68;;;2.28;;
59310;SDS011;45078;51.654;21.250;2023-10-09T03:57:00;5.65;;;2.63;;
59310;SDS011;45078;51.654;21.250;2023-10-09T03:59:27;5.43;;;2.10;;
59310;SDS011;45078;51.654;21.250;2023-10-09T04:01:57;8.13;;;2.78;;
59310;SDS011;45078;51.654;21.250;2023-10-09T04:04:23;6.10;;;2.80;;
59310;SDS011;45078;51.654;21.250;2023-10-09T04:06:50;7.10;;;3.05;;
59310;SDS011;45078;51.654;21.250;2023-10-09T04:09:20;5.75;;;2.78;;
59310;SDS011;45078;51.654;21.250;2023-10-09T04:14:25;7.78;;;2.33;;
59310;SDS011;45078;51.654;21.250;2023-10-09T04:17:00;8.77;;;2.83;;
59310;SDS011;45078;51.654;21.250;2023-10-09T04:19:29;8.93;;;3.30;;
59310;SDS011;45078;51.654;21.250;2023-10-09T04:22:03;7.28;;;3.25;;
59310;SDS011;45078;51.654;21.250;2023-10-09T04:24:33;9.18;;;3.05;;
59310;SDS011;45078;51.654;21.250;2023-10-09T04:27:06;5.47;;;2.45;;
59310;SDS011;45078;51.654;21.250;2023-10-09T04:29:33;6.13;;;2.92;;
59310;SDS011;45078;51.654;21.250;2023-10-09T04:32:05;9.60;;;2.97;;
59310;SDS011;45078;51.654;21.250;2023-10-09T04:34:40;4.20;;;2.40;;
59310;SDS011;45078;51.654;21.250;2023-10-09T04:37:14;6.35;;;2.90;;
59310;SDS011;45078;51.654;21.250;2023-10-09T04:39:43;10.43;;;3.03;;
59310;SDS011;45078;51.654;21.250;2023-10-09T04:42:41;5.80;;;2.63;;
59310;SDS011;45078;51.654;21.250;2023-10-09T04:45:23;6.38;;;2.60;;
59310;SDS011;45078;51.654;21.250;2023-10-09T04:48:07;8.82;;;3.28;;
59310;SDS011;45078;51.654;21.250;2023-10-09T04:50:34;8.75;;;3.17;;
59310;SDS011;45078;51.654;21.250;2023-10-09T04:53:00;5.85;;;2.83;;
59310;SDS011;45078;51.654;21.250;2023-10-09T04:55:41;7.90;;;3.10;;
59310;SDS011;45078;51.654;21.250;2023-10-09T04:58:18;4.38;;;2.53;;
59310;SDS011;45078;51.654;21.250;2023-10-09T05:00:51;6.15;;;3.33;;
59310;SDS011;45078;51.654;21.250;2023-10-09T05:03:23;5.53;;;2.83;;
59310;SDS011;45078;51.654;21.250;2023-10-09T05:05:52;4.78;;;2.65;;
59310;SDS011;45078;51.654;21.250;2023-10-09T05:08:24;7.10;;;3.25;;
59310;SDS011;45078;51.654;21.250;2023-10-09T05:13:32;8.10;;;2.95;;
59310;SDS011;45078;51.654;21.250;2023-10-09T05:21:04;7.07;;;2.83;;
59310;SDS011;45078;51.654;21.250;2023-10-09T05:23:50;5.63;;;2.35;;
59310;SDS011;45078;51.654;21.250;2023-10-09T05:26:36;6.18;;;2.60;;
59310;SDS011;45078;51.654;21.250;2023-10-09T05:31:55;7.13;;;3.30;;
59310;SDS011;45078;51.654;21.250;2023-10-09T05:34:40;7.00;;;2.88;;
59310;SDS011;45078;51.654;21.250;2023-10-09T05:37:28;7.07;;;2.58;;
59310;SDS011;45078;51.654;21.250;2023-10-09T05:39:58;7.05;;;2.90;;
59310;SDS011;45078;51.654;21.250;2023-10-09T05:42:42;6.15;;;2.63;;
59310;SDS011;45078;51.654;21.250;2023-10-09T05:45:13;7.07;;;2.95;;
59310;SDS011;45078;51.654;21.250;2023-10-09T05:47:43;6.45;;;2.80;;
59310;SDS011;45078;51.654;21.250;2023-10-09T05:50:21;4.63;;;2.55;;
59310;SDS011;45078;51.654;21.250;2023-10-09T05:52:47;5.53;;;2.47;;
59310;SDS011;45078;51.654;21.250;2023-10-09T05:55:24;7.80;;;3.15;;
59310;SDS011;45078;51.654;21.250;2023-10-09T05:58:03;8.43;;;2.92;;
59310;SDS011;45078;51.654;21.250;2023-10-09T06:00:47;8.48;;;3.30;;
59310;SDS011;45078;51.654;21.250;2023-10-09T06:06:20;7.00;;;3.05;;
59310;SDS011;45078;51.654;21.250;2023-10-09T06:09:02;6.25;;;2.67;;
59310;SDS011;45078;51.654;21.250;2023-10-09T06:11:34;5.45;;;2.67;;
59310;SDS011;45078;51.654;21.250;2023-10-09T06:14:00;8.88;;;3.03;;
59310;SDS011;45078;51.654;21.250;2023-10-09T06:16:29;6.95;;;3.28;;
59310;SDS011;45078;51.654;21.250;2023-10-09T06:21:45;9.80;;;3.40;;
59310;SDS011;45078;51.654;21.250;2023-10-09T06:24:20;7.50;;;3.30;;
59310;SDS011;45078;51.654;21.250;2023-10-09T06:27:02;8.68;;;3.25;;
59310;SDS011;45078;51.654;21.250;2023-10-09T06:29:31;7.40;;;3.75;;
59310;SDS011;45078;51.654;21.250;2023-10-09T06:32:15;9.38;;;4.22;;
59310;SDS011;45078;51.654;21.250;2023-10-09T06:34:48;15.13;;;3.92;;
59310;SDS011;45078;51.654;21.250;2023-10-09T06:37:20;7.95;;;3.33;;
59310;SDS011;45078;51.654;21.250;2023-10-09T06:39:50;9.63;;;3.90;;
59310;SDS011;45078;51.654;21.250;2023-10-09T06:42:22;7.80;;;3.85;;
59310;SDS011;45078;51.654;21.250;2023-10-09T06:45:04;7.30;;;3.60;;
59310;SDS011;45078;51.654;21.250;2023-10-09T06:47:36;7.35;;;4.32;;
59310;SDS011;45078;51.654;21.250;2023-10-09T06:50:20;7.80;;;4.00;;
59310;SDS011;45078;51.654;21.250;2023-10-09T06:52:49;7.40;;;4.10;;
59310;SDS011;45078;51.654;21.250;2023-10-09T06:55:22;8.25;;;3.83;;
59310;SDS011;45078;51.654;21.250;2023-10-09T06:57:58;7.45;;;4.25;;
59310;SDS011;45078;51.654;21.250;2023-10-09T07:00:27;6.75;;;3.58;;
59310;SDS011;45078;51.654;21.250;2023-10-09T07:03:11;10.02;;;4.28;;
59310;SDS011;45078;51.654;21.250;2023-10-09T07:05:38;10.63;;;4.32;;
59310;SDS011;45078;51.654;21.250;2023-10-09T07:08:22;9.05;;;4.55;;
59310;SDS011;45078;51.654;21.250;2023-10-09T07:10:57;7.60;;;3.95;;
59310;SDS011;45078;51.654;21.250;2023-10-09T07:13:45;6.93;;;3.78;;
59310;SDS011;45078;51.654;21.250;2023-10-09T07:16:19;5.13;;;2.87;;
59310;SDS011;45078;51.654;21.250;2023-10-09T07:18:49;10.02;;;4.22;;
59310;SDS011;45078;51.654;21.250;2023-10-09T07:21:14;9.13;;;3.90;;
59310;SDS011;45078;51.654;21.250;2023-10-09T07:23:43;5.28;;;3.03;;
59310;SDS011;45078;51.654;21.250;2023-10-09T07:26:14;8.30;;;3.28;;
59310;SDS011;45078;51.654;21.250;2023-10-09T07:29:03;9.45;;;3.85;;
59310;SDS011;45078;51.654;21.250;2023-10-09T07:31:45;9.18;;;3.53;;
59310;SDS011;45078;51.654;21.250;2023-10-09T07:34:11;8.43;;;3.70;;
59310;SDS011;45078;51.654;21.250;2023-10-09T07:36:57;6.78;;;3.60;;
59310;SDS011;45078;51.654;21.250;2023-10-09T07:39:28;8.35;;;3.72;;
59310;SDS011;45078;51.654;21.250;2023-10-09T07:42:00;10.43;;;4.18;;
59310;SDS011;45078;51.654;21.250;2023-10-09T07:44:40;9.35;;;3.80;;
59310;SDS011;45078;51.654;21.250;2023-10-09T07:47:11;10.20;;;3.88;;
59310;SDS011;45078;51.654;21.250;2023-10-09T07:49:45;9.70;;;3.90;;
59310;SDS011;45078;51.654;21.250;2023-10-09T07:52:16;7.38;;;3.45;;
59310;SDS011;45078;51.654;21.250;2023-10-09T07:54:42;7.38;;;3.45;;
59310;SDS011;45078;51.654;21.250;2023-10-09T07:57:15;7.57;;;3.55;;
59310;SDS011;45078;51.654;21.250;2023-10-09T07:59:42;8.18;;;4.13;;
59310;SDS011;45078;51.654;21.250;2023-10-09T08:02:22;9.40;;;3.72;;
59310;SDS011;45078;51.654;21.250;2023-10-09T08:04:58;11.23;;;3.40;;
59310;SDS011;45078;51.654;21.250;2023-10-09T08:07:54;5.68;;;3.13;;
59310;SDS011;45078;51.654;21.250;2023-10-09T08:10:22;6.55;;;3.40;;
59310;SDS011;45078;51.654;21.250;2023-10-09T08:12:48;7.25;;;3.28;;
59310;SDS011;45078;51.654;21.250;2023-10-09T08:15:13;6.97;;;3.15;;
59310;SDS011;45078;51.654;21.250;2023-10-09T08:17:55;7.90;;;3.50;;
59310;SDS011;45078;51.654;21.250;2023-10-09T08:20:28;6.57;;;3.20;;
59310;SDS011;45078;51.654;21.250;2023-10-09T08:23:14;9.57;;;3.42;;
59310;SDS011;45078;51.654;21.250;2023-10-09T08:28:43;4.88;;;2.63;;
59310;SDS011;45078;51.654;21.250;2023-10-09T08:31:13;7.38;;;2.58;;
59310;SDS011;45078;51.654;21.250;2023-10-09T08:33:58;6.10;;;3.10;;
59310;SDS011;45078;51.654;21.250;2023-10-09T08:36:27;6.65;;;2.97;;
59310;SDS011;45078;51.654;21.250;2023-10-09T08:38:54;6.85;;;2.67;;
59310;SDS011;45078;51.654;21.250;2023-10-09T08:41:24;9.30;;;3.00;;
59310;SDS011;45078;51.654;21.250;2023-10-09T08:43:55;5.32;;;2.55;;
59310;SDS011;45078;51.654;21.250;2023-10-09T08:46:23;5.25;;;2.50;;
59310;SDS011;45078;51.654;21.250;2023-10-09T08:48:56;6.30;;;2.90;;
59310;SDS011;45078;51.654;21.250;2023-10-09T08:51:24;7.70;;;2.88;;
59310;SDS011;45078;51.654;21.250;2023-10-09T08:53:50;7.47;;;2.72;;
59310;SDS011;45078;51.654;21.250;2023-10-09T08:56:17;7.05;;;2.33;;
59310;SDS011;45078;51.654;21.250;2023-10-09T08:58:47;6.07;;;2.30;;
59310;SDS011;45078;51.654;21.250;2023-10-09T09:01:17;6.55;;;2.38;;
59310;SDS011;45078;51.654;21.250;2023-10-09T09:03:46;5.13;;;2.47;;
59310;SDS011;45078;51.654;21.250;2023-10-09T09:06:13;5.97;;;2.40;;
59310;SDS011;45078;51.654;21.250;2023-10-09T09:08:39;6.85;;;2.20;;
59310;SDS011;45078;51.654;21.250;2023-10-09T09:11:09;5.07;;;2.55;;
59310;SDS011;45078;51.654;21.250;2023-10-09T09:13:47;8.13;;;3.35;;
59310;SDS011;45078;51.654;21.250;2023-10-09T09:16:30;7.15;;;2.97;;
59310;SDS011;45078;51.654;21.250;2023-10-09T09:21:34;3.95;;;2.10;;
59310;SDS011;45078;51.654;21.250;2023-10-09T09:24:11;7.75;;;2.40;;
59310;SDS011;45078;51.654;21.250;2023-10-09T09:26:54;4.40;;;2.10;;
59310;SDS011;45078;51.654;21.250;2023-10-09T09:29:24;5.68;;;2.40;;
59310;SDS011;45078;51.654;21.250;2023-10-09T09:32:03;5.38;;;3.10;;
59310;SDS011;45078;51.654;21.250;2023-10-09T09:34:51;6.50;;;2.78;;
59310;SDS011;45078;51.654;21.250;2023-10-09T09:37:26;6.28;;;2.35;;
59310;SDS011;45078;51.654;21.250;2023-10-09T09:39:58;5.22;;;2.38;;
59310;SDS011;45078;51.654;21.250;2023-10-09T09:42:26;5.80;;;2.33;;
59310;SDS011;45078;51.654;21.250;2023-10-09T09:44:53;5.38;;;2.67;;
59310;SDS011;45078;51.654;21.250;2023-10-09T09:47:20;7.50;;;3.17;;
59310;SDS011;45078;51.654;21.250;2023-10-09T09:49:52;5.55;;;2.72;;
59310;SDS011;45078;51.654;21.250;2023-10-09T09:52:24;7.75;;;2.67;;
59310;SDS011;45078;51.654;21.250;2023-10-09T09:54:52;7.65;;;2.50;;
59310;SDS011;45078;51.654;21.250;2023-10-09T09:57:18;8.63;;;3.03;;
59310;SDS011;45078;51.654;21.250;2023-10-09T09:59:51;6.18;;;2.80;;
59310;SDS011;45078;51.654;21.250;2023-10-09T10:02:32;6.72;;;2.67;;
59310;SDS011;45078;51.654;21.250;2023-10-09T10:05:03;6.60;;;3.47;;
59310;SDS011;45078;51.654;21.250;2023-10-09T10:07:32;8.32;;;3.28;;
59310;SDS011;45078;51.654;21.250;2023-10-09T10:13:13;5.88;;;2.75;;
59310;SDS011;45078;51.654;21.250;2023-10-09T10:18:33;9.30;;;3.60;;
59310;SDS011;45078;51.654;21.250;2023-10-09T10:21:18;9.50;;;4.05;;
59310;SDS011;45078;51.654;21.250;2023-10-09T10:23:58;8.38;;;3.97;;
59310;SDS011;45078;51.654;21.250;2023-10-09T10:26:37;13.55;;;4.32;;
59310;SDS011;45078;51.654;21.250;2023-10-09T10:29:16;10.10;;;4.05;;
59310;SDS011;45078;51.654;21.250;2023-10-09T10:31:51;10.13;;;4.15;;
59310;SDS011;45078;51.654;21.250;2023-10-09T10:34:19;7.50;;;3.50;;
59310;SDS011;45078;51.654;21.250;2023-10-09T10:36:49;16.02;;;4.35;;
59310;SDS011;45078;51.654;21.250;2023-10-09T10:39:23;5.82;;;3.13;;
59310;SDS011;45078;51.654;21.250;2023-10-09T10:42:07;8.15;;;4.13;;
59310;SDS011;45078;51.654;21.250;2023-10-09T10:44:34;9.90;;;3.53;;
59310;SDS011;45078;51.654;21.250;2023-10-09T10:47:04;9.15;;;3.70;;
59310;SDS011;45078;51.654;21.250;2023-10-09T10:49:42;10.65;;;4.30;;
59310;SDS011;45078;51.654;21.250;2023-10-09T10:52:19;8.27;;;3.65;;
59310;SDS011;45078;51.654;21.250;2023-10-09T10:54:45;9.30;;;3.92;;
59310;SDS011;45078;51.654;21.250;2023-10-09T10:57:18;5.13;;;3.38;;
59310;SDS011;45078;51.654;21.250;2023-10-09T10:59:45;8.55;;;3.47;;
59310;SDS011;45078;51.654;21.250;2023-10-09T11:02:11;10.32;;;4.15;;
59310;SDS011;45078;51.654;21.250;2023-10-09T11:04:37;8.00;;;3.53;;
59310;SDS011;45078;51.654;21.250;2023-10-09T11:07:03;5.60;;;3.33;;
59310;SDS011;45078;51.654;21.250;2023-10-09T11:09:44;11.20;;;3.50;;
59310;SDS011;45078;51.654;21.250;2023-10-09T11:12:29;9.15;;;3.40;;
59310;SDS011;45078;51.654;21.250;2023-10-09T11:15:15;7.22;;;3.13;;
59310;SDS011;45078;51.654;21.250;2023-10-09T11:20:34;9.40;;;3.45;;
59310;SDS011;45078;51.654;21.250;2023-10-09T11:23:04;6.35;;;2.83;;
59310;SDS011;45078;51.654;21.250;2023-10-09T11:25:43;8.00;;;3.50;;
59310;SDS011;45078;51.654;21.250;2023-10-09T11:28:32;8.57;;;3.55;;
59310;SDS011;45078;51.654;21.250;2023-10-09T11:31:17;6.13;;;3.30;;
59310;SDS011;45078;51.654;21.250;2023-10-09T11:33:49;8.02;;;3.45;;
59310;SDS011;45078;51.654;21.250;2023-10-09T11:36:22;8.18;;;3.13;;
59310;SDS011;45078;51.654;21.250;2023-10-09T11:38:57;6.75;;;3.22;;
59310;SDS011;45078;51.654;21.250;2023-10-09T11:41:41;7.65;;;3.25;;
59310;SDS011;45078;51.654;21.250;2023-10-09T11:44:06;7.60;;;2.80;;
59310;SDS011;45078;51.654;21.250;2023-10-09T11:46:56;5.43;;;2.80;;
59310;SDS011;45078;51.654;21.250;2023-10-09T11:49:50;7.20;;;2.95;;
59310;SDS011;45078;51.654;21.250;2023-10-09T11:52:26;6.05;;;2.95;;
59310;SDS011;45078;51.654;21.250;2023-10-09T11:55:03;6.90;;;3.13;;
59310;SDS011;45078;51.654;21.250;2023-10-09T11:57:32;7.18;;;3.28;;
59310;SDS011;45078;51.654;21.250;2023-10-09T12:00:00;10.05;;;3.22;;
59310;SDS011;45078;51.654;21.250;2023-10-09T12:02:35;6.68;;;2.65;;
59310;SDS011;45078;51.654;21.250;2023-10-09T12:05:09;5.82;;;3.05;;
59310;SDS011;45078;51.654;21.250;2023-10-09T12:07:42;7.68;;;3.03;;
59310;SDS011;45078;51.654;21.250;2023-10-09T12:10:10;4.65;;;2.75;;
59310;SDS011;45078;51.654;21.250;2023-10-09T12:12:39;8.20;;;3.03;;
59310;SDS011;45078;51.654;21.250;2023-10-09T12:15:11;8.55;;;3.08;;
59310;SDS011;45078;51.654;21.250;2023-10-09T12:17:42;5.95;;;2.80;;
59310;SDS011;45078;51.654;21.250;2023-10-09T12:20:09;7.00;;;2.85;;
59310;SDS011;45078;51.654;21.250;2023-10-09T12:22:46;9.52;;;3.67;;
59310;SDS011;45078;51.654;21.250;2023-10-09T12:25:12;6.25;;;3.03;;
59310;SDS011;45078;51.654;21.250;2023-10-09T12:27:38;5.97;;;2.88;;
59310;SDS011;45078;51.654;21.250;2023-10-09T12:30:04;8.35;;;3.45;;
59310;SDS011;45078;51.654;21.250;2023-10-09T12:32:30;10.27;;;3.80;;
59310;SDS011;45078;51.654;21.250;2023-10-09T12:35:00;6.97;;;3.60;;
59310;SDS011;45078;51.654;21.250;2023-10-09T12:37:26;7.30;;;3.30;;
59310;SDS011;45078;51.654;21.250;2023-10-09T12:39:51;7.38;;;3.78;;
59310;SDS011;45078;51.654;21.250;2023-10-09T12:42:21;8.43;;;3.97;;
59310;SDS011;45078;51.654;21.250;2023-10-09T12:44:47;10.55;;;4.07;;
59310;SDS011;45078;51.654;21.250;2023-10-09T12:47:13;10.07;;;4.25;;
59310;SDS011;45078;51.654;21.250;2023-10-09T12:49:39;10.35;;;3.88;;
59310;SDS011;45078;51.654;21.250;2023-10-09T12:52:06;10.63;;;4.07;;
59310;SDS011;45078;51.654;21.250;2023-10-09T12:54:40;8.70;;;4.13;;
59310;SDS011;45078;51.654;21.250;2023-10-09T12:57:07;11.07;;;4.53;;
59310;SDS011;45078;51.654;21.250;2023-10-09T12:59:38;10.15;;;4.90;;
59310;SDS011;45078;51.654;21.250;2023-10-09T13:02:13;7.60;;;3.58;;
59310;SDS011;45078;51.654;21.250;2023-10-09T13:04:55;5.95;;;3.00;;
59310;SDS011;45078;51.654;21.250;2023-10-09T13:07:21;8.40;;;3.92;;
59310;SDS011;45078;51.654;21.250;2023-10-09T13:09:47;9.35;;;4.32;;
59310;SDS011;45078;51.654;21.250;2023-10-09T13:12:32;10.80;;;3.90;;
59310;SDS011;45078;51.654;21.250;2023-10-09T13:14:58;7.50;;;3.90;;
59310;SDS011;45078;51.654;21.250;2023-10-09T13:17:24;7.45;;;3.85;;
59310;SDS011;45078;51.654;21.250;2023-10-09T13:19:52;7.40;;;3.60;;
59310;SDS011;45078;51.654;21.250;2023-10-09T13:22:19;10.75;;;4.00;;
59310;SDS011;45078;51.654;21.250;2023-10-09T13:24:46;9.82;;;3.70;;
59310;SDS011;45078;51.654;21.250;2023-10-09T13:27:13;9.50;;;3.72;;
59310;SDS011;45078;51.654;21.250;2023-10-09T13:29:46;6.88;;;3.47;;
59310;SDS011;45078;51.654;21.250;2023-10-09T13:32:13;7.05;;;3.70;;
59310;SDS011;45078;51.654;21.250;2023-10-09T13:34:40;10.43;;;3.83;;
59310;SDS011;45078;51.654;21.250;2023-10-09T13:37:13;6.93;;;3.75;;
59310;SDS011;45078;51.654;21.250;2023-10-09T13:39:44;7.10;;;3.50;;
59310;SDS011;45078;51.654;21.250;2023-10-09T13:42:21;9.90;;;3.75;;
59310;SDS011;45078;51.654;21.250;2023-10-09T13:44:50;7.28;;;4.10;;
59310;SDS011;45078;51.654;21.250;2023-10-09T13:47:18;7.28;;;3.88;;
59310;SDS011;45078;51.654;21.250;2023-10-09T13:49:45;6.95;;;3.88;;
59310;SDS011;45078;51.654;21.250;2023-10-09T13:52:15;11.25;;;3.92;;
59310;SDS011;45078;51.654;21.250;2023-10-09T13:54:43;6.20;;;3.47;;
59310;SDS011;45078;51.654;21.250;2023-10-09T13:57:13;10.43;;;3.90;;
59310;SDS011;45078;51.654;21.250;2023-10-09T13:59:40;8.63;;;4.28;;
59310;SDS011;45078;51.654;21.250;2023-10-09T14:02:16;7.85;;;4.07;;
59310;SDS011;45078;51.654;21.250;2023-10-09T14:04:46;9.73;;;4.43;;
59310;SDS011;45078;51.654;21.250;2023-10-09T14:07:12;11.57;;;3.60;;
59310;SDS011;45078;51.654;21.250;2023-10-09T14:09:41;7.50;;;3.60;;
59310;SDS011;45078;51.654;21.250;2023-10-09T14:12:20;9.13;;;4.47;;
59310;SDS011;45078;51.654;21.250;2023-10-09T14:14:51;9.60;;;3.85;;
59310;SDS011;45078;51.654;21.250;2023-10-09T14:17:22;10.80;;;4.35;;
59310;SDS011;45078;51.654;21.250;2023-10-09T14:19:53;14.77;;;4.20;;
59310;SDS011;45078;51.654;21.250;2023-10-09T14:24:51;12.65;;;5.00;;
59310;SDS011;45078;51.654;21.250;2023-10-09T14:27:21;8.38;;;4.32;;
59310;SDS011;45078;51.654;21.250;2023-10-09T14:29:51;8.98;;;4.88;;
59310;SDS011;45078;51.654;21.250;2023-10-09T14:32:21;8.23;;;4.35;;
59310;SDS011;45078;51.654;21.250;2023-10-09T14:34:53;10.02;;;4.40;;
59310;SDS011;45078;51.654;21.250;2023-10-09T14:37:20;10.48;;;4.85;;
59310;SDS011;45078;51.654;21.250;2023-10-09T14:39:46;8.95;;;4.43;;
59310;SDS011;45078;51.654;21.250;2023-10-09T14:42:15;8.93;;;4.60;;
59310;SDS011;45078;51.654;21.250;2023-10-09T14:44:42;9.50;;;4.93;;
59310;SDS011;45078;51.654;21.250;2023-10-09T14:47:10;8.85;;;4.70;;
59310;SDS011;45078;51.654;21.250;2023-10-09T14:49:36;11.35;;;4.78;;
59310;SDS011;45078;51.654;21.250;2023-10-09T14:52:08;8.70;;;5.13;;
59310;SDS011;45078;51.654;21.250;2023-10-09T14:54:35;10.35;;;4.63;;
59310;SDS011;45078;51.654;21.250;2023-10-09T14:57:01;8.25;;;4.53;;
59310;SDS011;45078;51.654;21.250;2023-10-09T14:59:34;10.93;;;4.72;;
59310;SDS011;45078;51.654;21.250;2023-10-09T15:02:00;9.82;;;4.93;;
59310;SDS011;45078;51.654;21.250;2023-10-09T15:04:26;8.98;;;4.97;;
59310;SDS011;45078;51.654;21.250;2023-10-09T15:06:52;10.60;;;4.63;;
59310;SDS011;45078;51.654;21.250;2023-10-09T15:09:18;10.25;;;4.90;;
59310;SDS011;45078;51.654;21.250;2023-10-09T15:11:47;8.98;;;4.35;;
59310;SDS011;45078;51.654;21.250;2023-10-09T15:14:17;9.65;;;4.65;;
59310;SDS011;45078;51.654;21.250;2023-10-09T15:16:46;10.27;;;4.35;;
59310;SDS011;45078;51.654;21.250;2023-10-09T15:19:12;18.45;;;5.03;;
59310;SDS011;45078;51.654;21.250;2023-10-09T15:21:39;7.28;;;4.13;;
59310;SDS011;45078;51.654;21.250;2023-10-09T15:24:12;8.27;;;4.53;;
59310;SDS011;45078;51.654;21.250;2023-10-09T15:26:50;8.10;;;4.35;;
59310;SDS011;45078;51.654;21.250;2023-10-09T15:29:22;8.00;;;4.45;;
59310;SDS011;45078;51.654;21.250;2023-10-09T15:31:56;7.30;;;4.15;;
59310;SDS011;45078;51.654;21.250;2023-10-09T15:34:33;7.82;;;4.20;;
59310;SDS011;45078;51.654;21.250;2023-10-09T15:37:01;12.90;;;4.45;;
59310;SDS011;45078;51.654;21.250;2023-10-09T15:39:32;6.75;;;4.07;;
59310;SDS011;45078;51.654;21.250;2023-10-09T15:42:01;7.55;;;4.22;;